x

New Dungeness - 17 Nm Ne Of Port Angeles, Wa (46088) Wave Buoy

3:20 - Thu 25th Dec 2014 All times are PST. -8 hours from GMT.

  • Sig Wave height 1.3ft
  • Swell Direction
  • Peak Period 10s
  • Average Period 6s
  • Wind
  • Sea Temp 49°f
  • Aire Temp 46°f
  • Sea Pressure 1023.7mb
  • New Dungeness - 17 Nm Ne Of Port Angeles, Wa
  • New Dungeness - 17 Nm Ne Of Port Angeles, Wa

More Historic Weather Station data

Upgrade to MSW Pro to gain access to the past 30 days of data for over 8000 Wavebouys and Weather Stations around the globe.

Join Pro

Comparision Forecast

View Surf forecast
   
jue 12/25 3:20 1.3ft 10s 6s  -  2 mph 1023.7mb 49f 46f
2:50 1ft 11s 5s  -  2 mph 1023.2mb 49f 49f
2:20 1ft 9s 5s 2
mph
1022.8mb 49f 47f
1:50 1ft 11s 5s 2
mph
1022.8mb 48f 48f
1:20 1ft 10s 4s  -  2 mph 1022.7mb 48f 48f
12:50 0.7ft  -  4s  -  2 mph 1022.6mb 48f 48f
12:20 0.7ft  -  4s 2 4 mph 1022.5mb 48f 47f
11:50 0.7ft  -  5s 2 4 mph 1022.4mb 48f 46f
11:20 0.7ft  -  5s 2 4 mph 1022.6mb 48f 46f
10:50 0.7ft  -  4s 2
mph
1022.8mb 48f 47f
10:20 1ft 8s 5s  -  2 mph 1022.6mb 48f 47f
9:50 1ft 10s 4s 2 4 mph 1022.1mb 48f 45f
9:20 1ft 11s 5s 4
mph
1021.8mb 48f 44f
8:50 1ft 12s 5s 7
mph
1021.3mb 48f 45f
8:20 0.7ft  -  4s 7 9 mph 1020.8mb 48f 45f
7:50 0.7ft  -  4s 9 11 mph 1020.6mb 48f 45f
7:20 0.7ft  -  4s 9 11 mph 1020.4mb 48f 45f
6:50 0.7ft  -  4s 7 9 mph 1020.4mb 48f 45f
6:20 0.7ft  -  3s 4 7 mph 1020.2mb 48f 45f
5:50 1ft 11s 4s 4 7 mph 1020.1mb 48f 45f
5:20 1ft 3s 3s 4 7 mph 1020mb 48f 45f
4:20 1.6ft 4s 4s 4 7 mph 1019.7mb 48f 45f
3:50 2ft 8s 4s 7
mph
1019.6mb 48f 45f
3:20 2ft 8s 4s 9
mph
1019.3mb 48f 45f
2:50 2.5ft 8s 4s 9 11 mph 1019mb 48f 46f
2:20 2.5ft 8s 5s 11 13 mph 1018.9mb 48f 46f
1:50 2.5ft 7s 5s 9 11 mph 1018.5mb 48f 47f
1:20 2.5ft 10s 6s 9 11 mph 1018.3mb 48f 47f
12:50 2.5ft 10s 6s 4 7 mph 1017.9mb 48f 47f
12:20 1.6ft 10s 5s 2 7 mph 1017.7mb 48f 46f
mié 12/24 11:50 1.6ft 5s 5s 2 4 mph 1017.7mb 48f 46f
11:20 1.3ft 6s 5s 4
mph
1017.6mb 48f 46f
10:50 1.3ft 10s 5s 4 7 mph 1017.4mb 48f 46f
10:20 1ft 5s 5s 4 7 mph 1017.1mb 48f 46f
9:50 1.3ft 6s 5s 2
mph
1016.8mb 48f 46f
9:20 1.6ft 5s 5s 4
mph
1016.7mb 48f 47f
8:50 1.6ft 5s 5s 4 7 mph 1016.5mb 48f 47f
8:20 2.5ft 5s 4s 9 11 mph 1016.1mb 48f 47f
7:50 2.5ft 5s 4s 13 16 mph 1015.5mb 48f 46f
7:20 2.5ft 5s 4s 16 18 mph 1015mb 48f 47f
6:50 2.5ft 4s 4s 18 20 mph 1014.4mb 48f 47f
6:20 2.5ft 4s 4s 16 18 mph 1014.2mb 48f 47f
5:50 3ft 4s 4s 16 20 mph 1014.1mb 48f 47f
5:20 3.5ft 5s 4s 18 22 mph 1013.8mb 48f 47f
4:50 3.5ft 4s 4s 18 22 mph 1013.7mb 48f 47f
4:20 3.5ft 4s 4s 20 25 mph 1013.4mb 48f 47f
3:50 3.5ft 5s 4s 20 22 mph 1013.2mb 48f 47f
3:20 4ft 5s 4s 18 22 mph 1013mb 48f 47f
2:50 3.5ft 4s 4s 20 25 mph 1012.7mb 48f 47f
2:20 3.5ft 5s 4s 20 22 mph 1012.5mb 48f 47f
1:50 3ft 5s 4s 20 25 mph 1012.3mb 48f 47f
1:20 2.5ft 4s 4s 20 27 mph 1012mb 48f 47f
12:50 2.5ft 5s 4s 22 27 mph 1011.7mb 48f 47f
12:20 2ft 4s 4s 20 25 mph 1011.6mb 48f 47f
11:50 1.6ft 4s 4s 20 22 mph 1011.6mb 48f 47f
11:20 1.3ft 5s 3s 13 18 mph 1012.3mb 48f 47f
10:50 1.3ft 4s 4s 16 18 mph 1012.4mb 48f 47f
10:20 1.6ft 5s 4s 16 18 mph 1012.7mb 48f 46f
9:50 2ft 4s 4s 18 20 mph 1012.5mb 48f 46f
9:20 2ft 4s 4s 18 22 mph 1012.2mb 48f 46f
8:50 2ft 3s 3s 16 18 mph 1011.9mb 48f 46f
8:20 2ft 3s 3s 16 20 mph 1011.8mb 48f 46f
7:50 1.6ft 3s 3s 22 25 mph 1011.4mb 48f 47f
7:20 1.6ft 3s 3s 20 25 mph 1011.4mb 48f 47f
6:50 1.3ft 3s 3s 13 16 mph 1011.7mb 48f 46f
6:20 1ft 2s 3s 16 20 mph 1011.7mb 48f 46f
5:50 1ft 13s 3s 18 20 mph 1012mb 48f 47f
5:20 1ft 3s 3s 11 13 mph 1012.9mb 48f 46f
4:50 1.3ft 4s 3s 11 13 mph 1013.4mb 48f 46f
4:20 1.3ft 15s 3s 16 18 mph 1013.7mb 48f 46f
3:50 1.3ft 15s 3s 13 16 mph 1014.1mb 48f 46f
3:20 1.3ft 15s 3s 7 9 mph 1014.5mb 48f 45f
2:50 1.6ft 8s 4s 7
mph
1014.8mb 48f 47f
2:20 1.6ft 8s 4s 7
mph
1015mb 48f 46f
1:50 1.3ft 10s 4s 9 11 mph 1015.6mb 48f 47f
1:20 1.3ft 11s 4s 4
mph
1015.7mb 48f 47f
12:50 1.3ft 11s 4s 7 9 mph 1016.1mb 48f 47f
12:20 1ft 11s 4s  -  2 mph 1016.2mb 48f 49f
mar 12/23 11:50 1ft 11s 4s 2 4 mph 1016.8mb 48f 49f
11:20 1ft 14s 4s 4
mph
1017mb 48f 49f
10:50 1ft 14s 4s 7 9 mph 1017.2mb 48f 49f
10:20 0.7ft  -  4s 9 11 mph 1017.2mb 48f 49f
9:50 0.7ft  -  4s 11 13 mph 1017.2mb 48f 50f
9:20 0.7ft  -  4s 7
mph
1017.7mb 48f 49f
8:50 0.7ft  -  4s 4
mph
1017.9mb 48f 49f
8:20 0.7ft  -  4s 4 7 mph 1017.9mb 48f 49f
7:50 0.7ft  -  3s 7 9 mph 1018.1mb 48f 50f
7:20 0.7ft  -  3s 9 13 mph 1018.4mb 48f 50f
6:50 0.7ft  -  3s 9 11 mph 1018.4mb 48f 50f
6:20 1ft 3s 3s 13 16 mph 1018.9mb 48f 50f
5:50 1ft 3s 3s 16 18 mph 1018.6mb 48f 50f
5:20 1ft 3s 3s 13 16 mph 1019mb 48f 50f
4:50 0.7ft  -  3s 20 25 mph 1018.8mb 48f 49f
4:20 0.7ft  -  3s 4
mph
1019.6mb 48f 48f
3:50 1ft 3s 3s 7 9 mph 1019.5mb 48f 48f
3:20 1ft 3s 3s 2 7 mph 1018.9mb 48f 48f
2:50 1.3ft 3s 3s 7 9 mph 1019.2mb 48f 48f
2:20 1.3ft 3s 3s 11 13 mph 1019.7mb 48f 48f
1:50 1.3ft 4s 3s 18 20 mph 1019.7mb 48f 48f
1:20 1.3ft 4s 3s 16 18 mph 1019.7mb 48f 47f
12:50 1.6ft 4s 3s 13 16 mph 1019.6mb 48f 47f
12:20 2.5ft 4s 3s 9
mph
1019.2mb 48f 47f
11:50 2.5ft 4s 4s 11 13 mph 1019.3mb 48f 48f
11:20 3.5ft 4s 4s 18 22 mph 1018.8mb 48f 48f
10:50 3.5ft 4s 4s 20 25 mph 1018.9mb 48f 48f
10:20 3ft 4s 4s 20 25 mph 1019.5mb 48f 48f
9:50 2.5ft 5s 4s 20 25 mph 1019.7mb 48f 48f
9:20 2ft 4s 4s 13 20 mph 1020mb 48f 48f
8:50 2ft 4s 4s 4
mph
1020mb 48f 47f
8:20 2.5ft 4s 4s 7 9 mph 1019.9mb 48f 47f
7:50 1.6ft 4s 3s 9 11 mph 1020mb 48f 47f
7:20 1.6ft 3s 3s 7 9 mph 1020.4mb 48f 47f
6:50 1.6ft 4s 4s 9 11 mph 1021.1mb 48f 47f
6:20 1.6ft 4s  -  11
mph
1021.6mb 48f 47f
5:50 1.6ft 4s 4s 13 16 mph 1021.7mb 48f 47f
5:20 1.3ft 4s 4s 16 20 mph 1021.8mb 48f 47f
4:50 1.3ft 4s 4s 16 20 mph 1022mb 48f 47f
4:20 1.3ft 4s 4s 16 18 mph 1022.7mb 48f 47f
3:50 1.3ft 4s 4s 13 16 mph 1023.5mb 48f 47f
3:20 1.3ft 4s 4s 16 18 mph 1024mb 48f 47f
2:50 1.3ft 4s 4s 16 18 mph 1024.6mb 48f 47f
2:20 1.3ft 4s 4s 16 18 mph 1024.8mb 48f 47f
1:50 1.6ft 3s 4s 13 16 mph 1025.4mb 48f 47f
1:20 1.6ft 9s 4s 13 16 mph 1025.5mb 48f 47f
12:50 1.3ft 9s 3s 13 18 mph 1025.5mb 48f 47f
12:20 1.3ft 10s 5s 13 16 mph 1026.1mb 48f 47f
lun 12/22 11:50 1ft 11s 7s 13 16 mph 1026.6mb 48f 47f
11:20 1ft 11s 7s 11 13 mph 1027.2mb 48f 47f
10:50 1ft 11s 7s 11 13 mph 1027.1mb 48f 47f
10:20 1ft 11s 8s 9 11 mph 1027.2mb 48f 47f
9:50 1ft 13s 8s 11 13 mph 1027.6mb 48f 47f
9:20 1ft 11s 7s 11
mph
1027.7mb 48f 48f
8:50 0.7ft  -  7s 9 13 mph 1028.1mb 49f 48f
8:20 0.7ft  -  6s 7 9 mph 1028.2mb 48f 48f
7:50 0.3ft  -  5s 9
mph
1028.2mb 48f 48f
7:20 0.7ft  -  5s 4 7 mph 1028.1mb 48f 48f
6:50 0.7ft  -  6s 4 7 mph 1027.9mb 48f 48f
6:20 0.7ft  -  5s 2 4 mph 1028.3mb 48f 48f
5:50 0.7ft  -  6s  -  2 mph 1028.6mb 48f 48f
5:20 0.7ft  -  6s 2 4 mph 1028.5mb 48f 48f
4:50 0.7ft  -  5s 7
mph
1028.4mb 48f 47f
4:20 1ft 9s 6s 7 9 mph 1028.5mb 48f 47f
3:50 1ft 11s 5s 9
mph
1028.4mb 48f 47f
3:20 1.3ft 13s 6s 4 7 mph 1028.5mb 48f 47f
2:50 1.3ft 12s 6s 4
mph
1028.6mb 48f 47f
2:20 1.3ft 9s 5s 4
mph
1028.3mb 48f 47f
1:50 1.6ft 12s 5s 2 4 mph 1028.4mb 48f 47f
1:20 1.3ft 13s 4s 2
mph
1028.2mb 48f 47f
12:50 1.3ft 13s 4s 4
mph
1028.3mb 48f 47f
12:20 1.3ft 13s 4s 4
mph
1028mb 48f 47f
11:50 1.3ft 12s 4s 7 9 mph 1027.6mb 48f 48f
11:20 1.6ft 11s 4s 9
mph
1027.7mb 48f 48f
10:50 1.6ft 4s 4s 9 11 mph 1027.6mb 48f 48f
10:20 1.3ft 13s 4s 11 13 mph 1027.7mb 48f 48f
9:50 1.6ft 12s 4s 13
mph
1027.6mb 48f 48f
9:20 1.6ft 5s 4s 11 13 mph 1027mb 48f 48f
8:50 1.6ft 5s 4s 13
mph
1026.4mb 48f 47f
8:20 1.3ft 11s 4s 16 18 mph 1026.2mb 48f 48f
7:50 1ft 3s 3s 16 18 mph 1025.7mb 48f 48f
7:20 1.3ft 3s 3s 13 16 mph 1025.2mb 48f 48f
6:50 1.6ft 3s 3s 16 18 mph 1025mb 48f 49f
6:20 1.3ft 3s 3s 11 13 mph 1024.8mb 48f 48f
5:50 1.3ft 3s 3s 11 13 mph 1024.1mb 48f 48f
5:20 1.3ft 3s 3s 16 18 mph 1023.5mb 48f 48f
4:20 2ft 3s 3s 18 22 mph 1023.1mb 48f 49f
3:50 2ft 3s 3s 18 20 mph 1022.8mb 48f 49f
3:20 2ft 3s 3s 18 20 mph 1022.2mb 48f 49f
2:50 2.5ft 3s 3s 20 25 mph 1021.7mb 48f 49f
2:20 2.5ft 3s 3s 20 22 mph 1021.2mb 48f 49f
1:50 3ft 4s 4s 20 25 mph 1020.6mb 48f 49f
1:20 3.5ft 4s 4s 20 27 mph 1020.1mb 48f 49f
12:50 3.5ft 4s 4s 22 27 mph 1020mb 48f 50f